sensor_id;sensor_type;location;lat;lon;timestamp;pressure;altitude;pressure_sealevel;temperature;humidity
58018;BME280;43810;50.860;19.226;2023-05-25T00:01:17;99134.94;;;12.25;83.84
58018;BME280;43810;50.860;19.226;2023-05-25T00:03:43;99128.03;;;12.24;83.68
58018;BME280;43810;50.860;19.226;2023-05-25T00:06:11;99132.81;;;12.31;83.79
58018;BME280;43810;50.860;19.226;2023-05-25T00:08:40;99127.56;;;12.43;83.14
58018;BME280;43810;50.860;19.226;2023-05-25T00:11:06;99133.88;;;12.39;83.36
58018;BME280;43810;50.860;19.226;2023-05-25T00:13:32;99129.19;;;12.36;83.38
58018;BME280;43810;50.860;19.226;2023-05-25T00:15:58;99135.44;;;12.40;83.44
58018;BME280;43810;50.860;19.226;2023-05-25T00:18:23;99140.38;;;12.50;82.70
58018;BME280;43810;50.860;19.226;2023-05-25T00:20:50;99126.28;;;12.49;82.69
58018;BME280;43810;50.860;19.226;2023-05-25T00:23:19;99139.59;;;12.49;82.90
58018;BME280;43810;50.860;19.226;2023-05-25T00:25:46;99134.41;;;12.53;82.61
58018;BME280;43810;50.860;19.226;2023-05-25T00:28:12;99134.28;;;12.29;83.43
58018;BME280;43810;50.860;19.226;2023-05-25T00:30:38;99131.72;;;12.32;83.66
58018;BME280;43810;50.860;19.226;2023-05-25T00:33:03;99130.94;;;12.32;83.48
58018;BME280;43810;50.860;19.226;2023-05-25T00:35:29;99128.88;;;12.37;83.45
58018;BME280;43810;50.860;19.226;2023-05-25T00:37:55;99129.66;;;12.38;83.08
58018;BME280;43810;50.860;19.226;2023-05-25T00:40:21;99126.06;;;12.34;83.46
58018;BME280;43810;50.860;19.226;2023-05-25T00:42:47;99121.84;;;12.33;83.27
58018;BME280;43810;50.860;19.226;2023-05-25T00:45:14;99123.63;;;12.29;83.80
58018;BME280;43810;50.860;19.226;2023-05-25T00:47:39;99124.72;;;12.28;83.64
58018;BME280;43810;50.860;19.226;2023-05-25T00:50:08;99112.19;;;12.28;83.80
58018;BME280;43810;50.860;19.226;2023-05-25T00:52:34;99114.53;;;12.30;83.43
58018;BME280;43810;50.860;19.226;2023-05-25T00:55:01;99115.03;;;12.23;83.66
58018;BME280;43810;50.860;19.226;2023-05-25T00:57:28;99115.19;;;12.27;83.81
58018;BME280;43810;50.860;19.226;2023-05-25T00:59:59;99116.13;;;12.22;84.09
58018;BME280;43810;50.860;19.226;2023-05-25T01:02:27;99116.13;;;12.22;84.19
58018;BME280;43810;50.860;19.226;2023-05-25T01:04:56;99114.06;;;12.28;83.70
58018;BME280;43810;50.860;19.226;2023-05-25T01:07:26;99117.31;;;12.33;83.72
58018;BME280;43810;50.860;19.226;2023-05-25T01:10:12;99102.88;;;12.34;83.75
58018;BME280;43810;50.860;19.226;2023-05-25T01:12:41;99107.09;;;12.35;83.78
58018;BME280;43810;50.860;19.226;2023-05-25T01:15:09;99109.03;;;12.47;83.09
58018;BME280;43810;50.860;19.226;2023-05-25T01:17:35;99116.97;;;12.35;83.48
58018;BME280;43810;50.860;19.226;2023-05-25T01:20:05;99133.63;;;12.32;83.95
58018;BME280;43810;50.860;19.226;2023-05-25T01:22:36;99137.34;;;12.39;83.75
58018;BME280;43810;50.860;19.226;2023-05-25T01:25:15;99140.41;;;12.29;83.68
58018;BME280;43810;50.860;19.226;2023-05-25T01:27:51;99133.81;;;12.27;84.16
58018;BME280;43810;50.860;19.226;2023-05-25T01:30:20;99130.53;;;12.30;84.42
58018;BME280;43810;50.860;19.226;2023-05-25T01:32:48;99131.88;;;12.36;84.29
58018;BME280;43810;50.860;19.226;2023-05-25T01:35:14;99138.63;;;12.33;83.72
58018;BME280;43810;50.860;19.226;2023-05-25T01:37:45;99137.19;;;12.36;83.99
58018;BME280;43810;50.860;19.226;2023-05-25T01:40:12;99136.59;;;12.51;82.75
58018;BME280;43810;50.860;19.226;2023-05-25T01:42:38;99132.47;;;12.41;83.29
58018;BME280;43810;50.860;19.226;2023-05-25T01:45:05;99133.56;;;12.40;83.26
58018;BME280;43810;50.860;19.226;2023-05-25T01:50:06;99117.31;;;12.66;82.24
58018;BME280;43810;50.860;19.226;2023-05-25T01:52:51;99115.44;;;12.67;81.64
58018;BME280;43810;50.860;19.226;2023-05-25T01:55:21;99113.72;;;12.50;82.21
58018;BME280;43810;50.860;19.226;2023-05-25T01:57:49;99114.19;;;12.52;82.01
58018;BME280;43810;50.860;19.226;2023-05-25T02:00:17;99116.94;;;12.55;81.96
58018;BME280;43810;50.860;19.226;2023-05-25T02:02:45;99113.19;;;12.56;81.72
58018;BME280;43810;50.860;19.226;2023-05-25T02:05:12;99107.06;;;12.56;82.12
58018;BME280;43810;50.860;19.226;2023-05-25T02:07:38;99103.06;;;12.50;82.42
58018;BME280;43810;50.860;19.226;2023-05-25T02:10:04;99106.50;;;12.50;82.20
58018;BME280;43810;50.860;19.226;2023-05-25T02:12:30;99116.19;;;12.55;82.03
58018;BME280;43810;50.860;19.226;2023-05-25T02:14:56;99119.84;;;12.50;82.22
58018;BME280;43810;50.860;19.226;2023-05-25T02:17:22;99117.34;;;12.45;82.37
58018;BME280;43810;50.860;19.226;2023-05-25T02:19:52;99119.84;;;12.50;82.30
58018;BME280;43810;50.860;19.226;2023-05-25T02:22:21;99121.50;;;12.55;81.55
58018;BME280;43810;50.860;19.226;2023-05-25T02:24:47;99120.81;;;12.46;82.10
58018;BME280;43810;50.860;19.226;2023-05-25T02:27:14;99127.25;;;12.45;82.17
58018;BME280;43810;50.860;19.226;2023-05-25T02:29:40;99130.50;;;12.50;81.91
58018;BME280;43810;50.860;19.226;2023-05-25T02:32:06;99131.94;;;12.48;82.14
58018;BME280;43810;50.860;19.226;2023-05-25T02:34:32;99133.88;;;12.39;82.29
58018;BME280;43810;50.860;19.226;2023-05-25T02:36:59;99133.09;;;12.38;82.95
58018;BME280;43810;50.860;19.226;2023-05-25T02:39:25;99140.06;;;12.51;82.25
58018;BME280;43810;50.860;19.226;2023-05-25T02:41:52;99134.59;;;12.48;82.32
58018;BME280;43810;50.860;19.226;2023-05-25T02:44:18;99139.59;;;12.49;81.88
58018;BME280;43810;50.860;19.226;2023-05-25T02:46:44;99139.13;;;12.47;81.43
58018;BME280;43810;50.860;19.226;2023-05-25T02:49:10;99135.94;;;12.33;82.05
58018;BME280;43810;50.860;19.226;2023-05-25T02:51:35;99138.69;;;12.24;82.54
58018;BME280;43810;50.860;19.226;2023-05-25T02:54:02;99136.81;;;12.25;82.68
58018;BME280;43810;50.860;19.226;2023-05-25T02:56:27;99140.81;;;12.31;82.53
58018;BME280;43810;50.860;19.226;2023-05-25T02:58:53;99140.97;;;12.35;82.71
58018;BME280;43810;50.860;19.226;2023-05-25T03:01:19;99143.91;;;12.42;81.71
58018;BME280;43810;50.860;19.226;2023-05-25T03:03:45;99142.06;;;12.34;81.90
58018;BME280;43810;50.860;19.226;2023-05-25T03:06:12;99141.19;;;12.30;82.25
58018;BME280;43810;50.860;19.226;2023-05-25T03:08:39;99144.94;;;12.29;81.88
58018;BME280;43810;50.860;19.226;2023-05-25T03:11:05;99138.88;;;12.19;82.52
58018;BME280;43810;50.860;19.226;2023-05-25T03:13:31;99148.00;;;12.18;82.03
58018;BME280;43810;50.860;19.226;2023-05-25T03:15:57;99140.50;;;12.12;82.17
58018;BME280;43810;50.860;19.226;2023-05-25T03:18:23;99141.16;;;12.09;83.05
58018;BME280;43810;50.860;19.226;2023-05-25T03:20:49;99149.28;;;12.12;82.87
58018;BME280;43810;50.860;19.226;2023-05-25T03:23:15;99139.22;;;12.18;82.78
58018;BME280;43810;50.860;19.226;2023-05-25T03:25:40;99139.78;;;12.23;82.78
58018;BME280;43810;50.860;19.226;2023-05-25T03:28:07;99148.06;;;12.31;82.60
58018;BME280;43810;50.860;19.226;2023-05-25T03:30:32;99147.00;;;12.23;82.46
58018;BME280;43810;50.860;19.226;2023-05-25T03:32:58;99140.81;;;12.10;83.10
58018;BME280;43810;50.860;19.226;2023-05-25T03:35:24;99152.56;;;12.09;83.29
58018;BME280;43810;50.860;19.226;2023-05-25T03:37:50;99156.88;;;12.22;82.50
58018;BME280;43810;50.860;19.226;2023-05-25T03:40:16;99160.06;;;12.16;82.56
58018;BME280;43810;50.860;19.226;2023-05-25T03:42:41;99150.06;;;12.13;82.99
58018;BME280;43810;50.860;19.226;2023-05-25T03:45:07;99155.06;;;12.14;83.16
58018;BME280;43810;50.860;19.226;2023-05-25T03:47:35;99157.16;;;12.30;82.24
58018;BME280;43810;50.860;19.226;2023-05-25T03:50:04;99157.81;;;12.27;82.65
58018;BME280;43810;50.860;19.226;2023-05-25T03:52:32;99156.09;;;12.22;82.87
58018;BME280;43810;50.860;19.226;2023-05-25T03:54:58;99158.44;;;12.23;82.75
58018;BME280;43810;50.860;19.226;2023-05-25T03:57:26;99150.50;;;12.15;83.23
58018;BME280;43810;50.860;19.226;2023-05-25T03:59:52;99158.56;;;12.06;83.65
58018;BME280;43810;50.860;19.226;2023-05-25T04:02:19;99154.34;;;12.05;83.73
58018;BME280;43810;50.860;19.226;2023-05-25T04:04:44;99156.34;;;12.08;83.41
58018;BME280;43810;50.860;19.226;2023-05-25T04:07:11;99152.78;;;12.04;83.57
58018;BME280;43810;50.860;19.226;2023-05-25T04:09:37;99166.88;;;12.05;83.65
58018;BME280;43810;50.860;19.226;2023-05-25T04:12:03;99157.59;;;12.11;83.64
58018;BME280;43810;50.860;19.226;2023-05-25T04:14:28;99163.50;;;12.16;83.83
58018;BME280;43810;50.860;19.226;2023-05-25T04:16:54;99165.19;;;12.21;82.89
58018;BME280;43810;50.860;19.226;2023-05-25T04:19:20;99167.75;;;12.17;83.31
58018;BME280;43810;50.860;19.226;2023-05-25T04:21:46;99165.84;;;12.18;82.78
58018;BME280;43810;50.860;19.226;2023-05-25T04:24:12;99168.88;;;12.08;83.89
58018;BME280;43810;50.860;19.226;2023-05-25T04:26:38;99165.06;;;12.17;83.55
58018;BME280;43810;50.860;19.226;2023-05-25T04:29:04;99165.19;;;12.21;83.33
58018;BME280;43810;50.860;19.226;2023-05-25T04:31:31;99157.25;;;12.12;83.93
58018;BME280;43810;50.860;19.226;2023-05-25T04:33:57;99170.13;;;12.10;84.01
58018;BME280;43810;50.860;19.226;2023-05-25T04:36:24;99172.84;;;12.02;84.35
58018;BME280;43810;50.860;19.226;2023-05-25T04:38:49;99180.38;;;12.00;84.79
58018;BME280;43810;50.860;19.226;2023-05-25T04:41:17;99184.91;;;11.99;85.23
58018;BME280;43810;50.860;19.226;2023-05-25T04:43:42;99190.31;;;12.11;84.71
58018;BME280;43810;50.860;19.226;2023-05-25T04:46:12;99185.19;;;12.06;84.78
58018;BME280;43810;50.860;19.226;2023-05-25T04:48:41;99184.84;;;12.08;84.63
58018;BME280;43810;50.860;19.226;2023-05-25T04:51:08;99186.09;;;12.10;84.73
58018;BME280;43810;50.860;19.226;2023-05-25T04:53:34;99186.78;;;12.07;85.00
58018;BME280;43810;50.860;19.226;2023-05-25T04:56:00;99193.91;;;12.15;85.14
58018;BME280;43810;50.860;19.226;2023-05-25T04:58:26;99192.72;;;12.04;85.38
58018;BME280;43810;50.860;19.226;2023-05-25T05:00:56;99192.72;;;12.04;85.41
58018;BME280;43810;50.860;19.226;2023-05-25T05:03:22;99198.84;;;12.05;85.17
58018;BME280;43810;50.860;19.226;2023-05-25T05:05:48;99210.91;;;12.02;85.44
58018;BME280;43810;50.860;19.226;2023-05-25T05:08:14;99202.66;;;11.95;85.74
58018;BME280;43810;50.860;19.226;2023-05-25T05:10:40;99216.28;;;11.94;85.64
58018;BME280;43810;50.860;19.226;2023-05-25T05:13:06;99220.53;;;11.86;85.70
58018;BME280;43810;50.860;19.226;2023-05-25T05:15:32;99212.69;;;11.89;85.74
58018;BME280;43810;50.860;19.226;2023-05-25T05:17:58;99214.00;;;11.83;86.25
58018;BME280;43810;50.860;19.226;2023-05-25T05:20:24;99218.47;;;11.92;86.76
58018;BME280;43810;50.860;19.226;2023-05-25T05:22:50;99214.66;;;12.01;85.88
58018;BME280;43810;50.860;19.226;2023-05-25T05:25:18;99224.84;;;11.99;85.58
58018;BME280;43810;50.860;19.226;2023-05-25T05:27:44;99219.06;;;11.97;86.24
58018;BME280;43810;50.860;19.226;2023-05-25T05:30:10;99228.44;;;12.03;86.12
58018;BME280;43810;50.860;19.226;2023-05-25T05:32:36;99230.47;;;12.06;86.15
58018;BME280;43810;50.860;19.226;2023-05-25T05:35:02;99225.47;;;12.05;86.08
58018;BME280;43810;50.860;19.226;2023-05-25T05:37:28;99223.63;;;11.97;86.83
58018;BME280;43810;50.860;19.226;2023-05-25T05:39:54;99229.03;;;12.09;86.30
58018;BME280;43810;50.860;19.226;2023-05-25T05:42:20;99233.56;;;12.17;86.02
58018;BME280;43810;50.860;19.226;2023-05-25T05:44:46;99229.72;;;12.27;85.57
58018;BME280;43810;50.860;19.226;2023-05-25T05:47:11;99236.00;;;12.22;85.78
58018;BME280;43810;50.860;19.226;2023-05-25T05:49:37;99236.00;;;12.22;86.14
58018;BME280;43810;50.860;19.226;2023-05-25T05:52:04;99247.75;;;12.30;86.03
58018;BME280;43810;50.860;19.226;2023-05-25T05:54:30;99247.38;;;12.40;85.68
58018;BME280;43810;50.860;19.226;2023-05-25T05:56:56;99244.69;;;12.40;85.45
58018;BME280;43810;50.860;19.226;2023-05-25T05:59:22;99240.06;;;12.28;85.68
58018;BME280;43810;50.860;19.226;2023-05-25T06:01:48;99240.19;;;12.32;85.87
58018;BME280;43810;50.860;19.226;2023-05-25T06:04:14;99239.06;;;12.41;85.28
58018;BME280;43810;50.860;19.226;2023-05-25T06:06:40;99240.09;;;12.49;85.13
58018;BME280;43810;50.860;19.226;2023-05-25T06:09:07;99234.22;;;12.35;85.32
58018;BME280;43810;50.860;19.226;2023-05-25T06:11:35;99235.91;;;12.18;86.53
58018;BME280;43810;50.860;19.226;2023-05-25T06:14:02;99239.53;;;12.35;86.27
58018;BME280;43810;50.860;19.226;2023-05-25T06:16:28;99245.91;;;12.42;85.55
58018;BME280;43810;50.860;19.226;2023-05-25T06:18:54;99248.25;;;12.44;85.71
58018;BME280;43810;50.860;19.226;2023-05-25T06:21:19;99245.75;;;12.47;85.78
58018;BME280;43810;50.860;19.226;2023-05-25T06:23:46;99243.78;;;12.56;85.34
58018;BME280;43810;50.860;19.226;2023-05-25T06:26:14;99251.69;;;12.74;85.62
58018;BME280;43810;50.860;19.226;2023-05-25T06:28:40;99252.66;;;12.90;85.41
58018;BME280;43810;50.860;19.226;2023-05-25T06:31:06;99250.72;;;12.99;84.35
58018;BME280;43810;50.860;19.226;2023-05-25T06:33:32;99250.25;;;12.97;84.10
58018;BME280;43810;50.860;19.226;2023-05-25T06:35:58;99248.53;;;13.13;83.98
58018;BME280;43810;50.860;19.226;2023-05-25T06:38:27;99245.44;;;13.23;82.82
58018;BME280;43810;50.860;19.226;2023-05-25T06:40:53;99250.13;;;13.26;83.40
58018;BME280;43810;50.860;19.226;2023-05-25T06:43:19;99249.19;;;13.43;82.99
58018;BME280;43810;50.860;19.226;2023-05-25T06:45:45;99256.34;;;13.63;82.86
58018;BME280;43810;50.860;19.226;2023-05-25T06:48:11;99253.72;;;13.88;80.81
58018;BME280;43810;50.860;19.226;2023-05-25T06:50:37;99255.38;;;13.92;80.43
58018;BME280;43810;50.860;19.226;2023-05-25T06:53:04;99260.72;;;14.04;80.18
58018;BME280;43810;50.860;19.226;2023-05-25T06:55:30;99260.19;;;14.11;80.84
58018;BME280;43810;50.860;19.226;2023-05-25T06:57:56;99255.63;;;14.24;79.44
58018;BME280;43810;50.860;19.226;2023-05-25T07:00:23;99260.75;;;14.29;78.28
58018;BME280;43810;50.860;19.226;2023-05-25T07:02:49;99255.72;;;14.39;78.26
58018;BME280;43810;50.860;19.226;2023-05-25T07:05:15;99257.75;;;14.30;79.34
58018;BME280;43810;50.860;19.226;2023-05-25T07:07:41;99250.03;;;14.41;77.79
58018;BME280;43810;50.860;19.226;2023-05-25T07:10:07;99256.59;;;14.56;77.89
58018;BME280;43810;50.860;19.226;2023-05-25T07:12:33;99266.19;;;14.57;76.50
58018;BME280;43810;50.860;19.226;2023-05-25T07:14:59;99262.22;;;14.26;77.68
58018;BME280;43810;50.860;19.226;2023-05-25T07:17:25;99258.19;;;14.20;78.84
58018;BME280;43810;50.860;19.226;2023-05-25T07:19:53;99258.44;;;14.15;79.26
58018;BME280;43810;50.860;19.226;2023-05-25T07:22:19;99258.41;;;14.27;78.69
58018;BME280;43810;50.860;19.226;2023-05-25T07:24:45;99267.09;;;14.24;79.32
58018;BME280;43810;50.860;19.226;2023-05-25T07:27:12;99259.41;;;14.35;79.08
58018;BME280;43810;50.860;19.226;2023-05-25T07:29:39;99264.06;;;14.50;78.40
58018;BME280;43810;50.860;19.226;2023-05-25T07:32:05;99261.94;;;14.56;78.24
58018;BME280;43810;50.860;19.226;2023-05-25T07:34:34;99269.75;;;14.49;78.57
58018;BME280;43810;50.860;19.226;2023-05-25T07:37:01;99272.38;;;14.73;77.65
58018;BME280;43810;50.860;19.226;2023-05-25T07:39:26;99270.28;;;14.66;78.26
58018;BME280;43810;50.860;19.226;2023-05-25T07:41:52;99263.66;;;14.76;76.84
58018;BME280;43810;50.860;19.226;2023-05-25T07:44:18;99273.59;;;14.75;77.39
58018;BME280;43810;50.860;19.226;2023-05-25T07:46:44;99274.66;;;14.87;77.05
58018;BME280;43810;50.860;19.226;2023-05-25T07:49:10;99276.69;;;14.90;76.71
58018;BME280;43810;50.860;19.226;2023-05-25T07:51:43;99276.34;;;14.91;75.92
58018;BME280;43810;50.860;19.226;2023-05-25T07:54:10;99275.91;;;14.89;76.69
58018;BME280;43810;50.860;19.226;2023-05-25T07:56:37;99277.78;;;14.89;77.54
58018;BME280;43810;50.860;19.226;2023-05-25T07:59:03;99274.41;;;15.04;76.06
58018;BME280;43810;50.860;19.226;2023-05-25T08:01:29;99270.31;;;14.94;76.57
58018;BME280;43810;50.860;19.226;2023-05-25T08:03:56;99274.59;;;15.11;76.27
58018;BME280;43810;50.860;19.226;2023-05-25T08:06:22;99265.78;;;15.10;76.67
58018;BME280;43810;50.860;19.226;2023-05-25T08:08:48;99268.47;;;15.10;75.67
58018;BME280;43810;50.860;19.226;2023-05-25T08:11:16;99273.03;;;15.10;76.63
58018;BME280;43810;50.860;19.226;2023-05-25T08:13:42;99276.88;;;15.25;74.68
58018;BME280;43810;50.860;19.226;2023-05-25T08:16:08;99280.00;;;14.99;76.50
58018;BME280;43810;50.860;19.226;2023-05-25T08:18:34;99270.22;;;15.19;76.76
58018;BME280;43810;50.860;19.226;2023-05-25T08:21:00;99280.53;;;15.32;75.66
58018;BME280;43810;50.860;19.226;2023-05-25T08:23:26;99281.06;;;15.38;75.80
58018;BME280;43810;50.860;19.226;2023-05-25T08:25:54;99283.94;;;15.45;74.83
58018;BME280;43810;50.860;19.226;2023-05-25T08:28:20;99276.03;;;15.48;74.95
58018;BME280;43810;50.860;19.226;2023-05-25T08:30:47;99283.59;;;15.46;75.01
58018;BME280;43810;50.860;19.226;2023-05-25T08:33:12;99286.06;;;15.52;74.19
58018;BME280;43810;50.860;19.226;2023-05-25T08:35:38;99275.50;;;15.31;75.28
58018;BME280;43810;50.860;19.226;2023-05-25T08:38:07;99278.31;;;15.06;76.27
58018;BME280;43810;50.860;19.226;2023-05-25T08:40:33;99286.66;;;15.33;74.87
58018;BME280;43810;50.860;19.226;2023-05-25T08:42:59;99291.22;;;15.32;75.27
58018;BME280;43810;50.860;19.226;2023-05-25T08:45:25;99281.63;;;15.31;74.89
58018;BME280;43810;50.860;19.226;2023-05-25T08:47:54;99288.09;;;15.14;75.50
58018;BME280;43810;50.860;19.226;2023-05-25T08:50:26;99281.16;;;15.13;75.42
58018;BME280;43810;50.860;19.226;2023-05-25T08:52:52;99274.94;;;15.09;75.28
58018;BME280;43810;50.860;19.226;2023-05-25T08:55:21;99280.94;;;15.19;76.23
58018;BME280;43810;50.860;19.226;2023-05-25T09:00:32;99290.69;;;15.55;75.72
58018;BME280;43810;50.860;19.226;2023-05-25T09:03:14;99278.47;;;15.69;74.55
58018;BME280;43810;50.860;19.226;2023-05-25T09:05:40;99280.91;;;15.74;73.40
58018;BME280;43810;50.860;19.226;2023-05-25T09:08:07;99274.41;;;15.91;73.37
58018;BME280;43810;50.860;19.226;2023-05-25T09:10:34;99278.03;;;15.83;74.21
58018;BME280;43810;50.860;19.226;2023-05-25T09:13:00;99283.22;;;15.92;73.31
58018;BME280;43810;50.860;19.226;2023-05-25T09:15:27;99277.97;;;15.95;73.29
58018;BME280;43810;50.860;19.226;2023-05-25T09:17:53;99281.50;;;15.83;73.40
58018;BME280;43810;50.860;19.226;2023-05-25T09:20:19;99282.78;;;15.90;73.89
58018;BME280;43810;50.860;19.226;2023-05-25T09:22:48;99281.47;;;16.15;73.50
58018;BME280;43810;50.860;19.226;2023-05-25T09:25:18;99280.41;;;16.35;70.96
58018;BME280;43810;50.860;19.226;2023-05-25T09:27:47;99278.28;;;16.25;72.17
58018;BME280;43810;50.860;19.226;2023-05-25T09:30:14;99275.69;;;16.29;72.27
58018;BME280;43810;50.860;19.226;2023-05-25T09:32:40;99277.16;;;16.26;72.64
58018;BME280;43810;50.860;19.226;2023-05-25T09:41:50;99297.84;;;15.94;73.10
58018;BME280;43810;50.860;19.226;2023-05-25T09:44:15;99289.97;;;16.01;72.83
58018;BME280;43810;50.860;19.226;2023-05-25T09:46:41;99293.50;;;15.90;73.54
58018;BME280;43810;50.860;19.226;2023-05-25T09:49:09;99303.22;;;16.10;74.29
58018;BME280;43810;50.860;19.226;2023-05-25T09:51:35;99301.03;;;16.31;72.28
58018;BME280;43810;50.860;19.226;2023-05-25T09:54:02;99296.94;;;16.37;72.03
58018;BME280;43810;50.860;19.226;2023-05-25T09:56:30;99287.84;;;16.42;72.27
58018;BME280;43810;50.860;19.226;2023-05-25T09:58:57;99298.28;;;16.47;71.89
58018;BME280;43810;50.860;19.226;2023-05-25T10:01:24;99297.59;;;16.50;71.90
58018;BME280;43810;50.860;19.226;2023-05-25T10:03:50;99302.03;;;16.42;71.30
58018;BME280;43810;50.860;19.226;2023-05-25T10:06:16;99291.91;;;16.36;71.76
58018;BME280;43810;50.860;19.226;2023-05-25T10:08:48;99295.84;;;16.23;73.13
58018;BME280;43810;50.860;19.226;2023-05-25T10:11:15;99300.38;;;16.53;73.14
58018;BME280;43810;50.860;19.226;2023-05-25T10:13:44;99309.25;;;16.73;71.68
58018;BME280;43810;50.860;19.226;2023-05-25T10:16:14;99304.47;;;16.82;70.65
58018;BME280;43810;50.860;19.226;2023-05-25T10:18:47;99307.25;;;16.86;71.03
58018;BME280;43810;50.860;19.226;2023-05-25T10:21:17;99312.53;;;16.82;69.65
58018;BME280;43810;50.860;19.226;2023-05-25T10:23:46;99299.94;;;16.67;70.36
58018;BME280;43810;50.860;19.226;2023-05-25T10:26:17;99300.63;;;16.64;71.32
58018;BME280;43810;50.860;19.226;2023-05-25T10:28:45;99299.78;;;16.60;71.01
58018;BME280;43810;50.860;19.226;2023-05-25T10:31:13;99304.59;;;16.70;70.20
58018;BME280;43810;50.860;19.226;2023-05-25T10:33:41;99303.06;;;16.53;70.30
58018;BME280;43810;50.860;19.226;2023-05-25T10:36:09;99309.03;;;16.47;71.02
58018;BME280;43810;50.860;19.226;2023-05-25T10:38:38;99305.25;;;16.32;71.32
58018;BME280;43810;50.860;19.226;2023-05-25T10:41:05;99298.22;;;16.59;71.69
58018;BME280;43810;50.860;19.226;2023-05-25T10:43:33;99308.47;;;16.73;71.57
58018;BME280;43810;50.860;19.226;2023-05-25T10:45:59;99302.31;;;16.88;70.88
58018;BME280;43810;50.860;19.226;2023-05-25T10:48:38;99308.94;;;16.94;69.81
58018;BME280;43810;50.860;19.226;2023-05-25T10:51:05;99300.03;;;17.09;70.35
58018;BME280;43810;50.860;19.226;2023-05-25T10:53:31;99301.72;;;17.17;71.12
58018;BME280;43810;50.860;19.226;2023-05-25T10:58:26;99292.78;;;17.52;67.80
58018;BME280;43810;50.860;19.226;2023-05-25T11:01:00;99288.63;;;17.54;68.36
58018;BME280;43810;50.860;19.226;2023-05-25T11:06:12;99290.16;;;17.97;66.11
58018;BME280;43810;50.860;19.226;2023-05-25T11:08:53;99289.34;;;17.93;67.44
58018;BME280;43810;50.860;19.226;2023-05-25T11:14:04;99284.44;;;17.76;66.74
58018;BME280;43810;50.860;19.226;2023-05-25T11:16:31;99290.03;;;17.68;67.89
58018;BME280;43810;50.860;19.226;2023-05-25T11:19:02;99280.75;;;17.84;66.54
58018;BME280;43810;50.860;19.226;2023-05-25T11:23:58;99282.41;;;17.70;66.73
58018;BME280;43810;50.860;19.226;2023-05-25T11:26:27;99287.34;;;17.68;68.17
58018;BME280;43810;50.860;19.226;2023-05-25T11:28:54;99286.66;;;17.71;67.05
58018;BME280;43810;50.860;19.226;2023-05-25T11:31:31;99280.00;;;17.87;66.95
58018;BME280;43810;50.860;19.226;2023-05-25T11:33:58;99287.34;;;18.13;67.07
58018;BME280;43810;50.860;19.226;2023-05-25T11:36:26;99281.06;;;18.28;65.32
58018;BME280;43810;50.860;19.226;2023-05-25T11:38:56;99282.69;;;18.10;66.17
58018;BME280;43810;50.860;19.226;2023-05-25T11:41:22;99283.66;;;17.98;66.42
58018;BME280;43810;50.860;19.226;2023-05-25T11:43:49;99277.75;;;17.89;66.65
58018;BME280;43810;50.860;19.226;2023-05-25T11:46:17;99271.22;;;17.90;68.01
58018;BME280;43810;50.860;19.226;2023-05-25T11:51:26;99267.06;;;17.93;65.98
58018;BME280;43810;50.860;19.226;2023-05-25T11:53:52;99271.81;;;18.03;67.97
58018;BME280;43810;50.860;19.226;2023-05-25T11:56:20;99277.78;;;18.16;66.34
58018;BME280;43810;50.860;19.226;2023-05-25T11:58:48;99267.63;;;18.32;66.97
58018;BME280;43810;50.860;19.226;2023-05-25T12:01:17;99271.81;;;18.56;64.96
58018;BME280;43810;50.860;19.226;2023-05-25T12:03:44;99276.41;;;18.55;65.30
58018;BME280;43810;50.860;19.226;2023-05-25T12:06:27;99271.97;;;18.66;65.25
58018;BME280;43810;50.860;19.226;2023-05-25T12:08:54;99268.81;;;18.61;65.83
58018;BME280;43810;50.860;19.226;2023-05-25T12:11:34;99272.75;;;18.63;64.32
58018;BME280;43810;50.860;19.226;2023-05-25T12:14:04;99271.47;;;18.57;65.63
58018;BME280;43810;50.860;19.226;2023-05-25T12:16:32;99269.72;;;18.68;64.37
58018;BME280;43810;50.860;19.226;2023-05-25T12:18:59;99267.78;;;18.69;65.04
58018;BME280;43810;50.860;19.226;2023-05-25T12:21:26;99267.78;;;18.69;65.93
58018;BME280;43810;50.860;19.226;2023-05-25T12:23:53;99266.00;;;18.80;64.88
58018;BME280;43810;50.860;19.226;2023-05-25T12:26:19;99259.56;;;18.58;64.05
58018;BME280;43810;50.860;19.226;2023-05-25T12:29:06;99269.72;;;18.42;65.46
58018;BME280;43810;50.860;19.226;2023-05-25T12:31:34;99268.78;;;18.31;66.55
58018;BME280;43810;50.860;19.226;2023-05-25T12:34:08;99269.25;;;18.36;66.21
58018;BME280;43810;50.860;19.226;2023-05-25T12:36:38;99268.75;;;18.57;65.33
58018;BME280;43810;50.860;19.226;2023-05-25T12:39:05;99268.03;;;18.87;64.53
58018;BME280;43810;50.860;19.226;2023-05-25T12:44:24;99258.47;;;19.26;64.07
58018;BME280;43810;50.860;19.226;2023-05-25T12:46:52;99253.50;;;19.28;63.77
58018;BME280;43810;50.860;19.226;2023-05-25T12:49:29;99255.34;;;19.58;63.12
58018;BME280;43810;50.860;19.226;2023-05-25T12:51:56;99262.00;;;19.71;61.99
58018;BME280;43810;50.860;19.226;2023-05-25T12:54:51;99252.50;;;19.80;61.94
58018;BME280;43810;50.860;19.226;2023-05-25T12:57:17;99254.28;;;19.69;61.57
58018;BME280;43810;50.860;19.226;2023-05-25T12:59:44;99245.28;;;19.55;63.52
58018;BME280;43810;50.860;19.226;2023-05-25T13:02:12;99239.47;;;19.93;61.95
58018;BME280;43810;50.860;19.226;2023-05-25T13:04:39;99235.88;;;20.30;63.01
58018;BME280;43810;50.860;19.226;2023-05-25T13:07:09;99239.59;;;20.76;60.98
58018;BME280;43810;50.860;19.226;2023-05-25T13:09:35;99237.06;;;21.19;56.99
58018;BME280;43810;50.860;19.226;2023-05-25T13:12:01;99232.88;;;21.39;57.92
58018;BME280;43810;50.860;19.226;2023-05-25T13:14:28;99232.13;;;21.81;58.99
58018;BME280;43810;50.860;19.226;2023-05-25T13:16:55;99224.38;;;22.15;55.54
58018;BME280;43810;50.860;19.226;2023-05-25T13:19:23;99231.34;;;22.02;54.42